sensor_id;sensor_type;location;lat;lon;timestamp;P1;durP1;ratioP1;P2;durP2;ratioP2
65751;SDS011;52486;51.098;13.770;2023-06-22T00:01:57;1.63;;;1.52;;
65751;SDS011;52486;51.098;13.770;2023-06-22T00:04:23;1.58;;;1.48;;
65751;SDS011;52486;51.098;13.770;2023-06-22T00:06:49;1.48;;;1.38;;
65751;SDS011;52486;51.098;13.770;2023-06-22T00:09:14;2.20;;;1.60;;
65751;SDS011;52486;51.098;13.770;2023-06-22T00:11:40;1.55;;;1.45;;
65751;SDS011;52486;51.098;13.770;2023-06-22T00:14:06;1.50;;;1.40;;
65751;SDS011;52486;51.098;13.770;2023-06-22T00:16:32;1.70;;;1.60;;
65751;SDS011;52486;51.098;13.770;2023-06-22T00:18:58;1.60;;;1.50;;
65751;SDS011;52486;51.098;13.770;2023-06-22T00:21:28;1.55;;;1.45;;
65751;SDS011;52486;51.098;13.770;2023-06-22T00:23:55;1.40;;;1.30;;
65751;SDS011;52486;51.098;13.770;2023-06-22T00:26:20;1.45;;;1.35;;
65751;SDS011;52486;51.098;13.770;2023-06-22T00:28:47;1.50;;;1.40;;
65751;SDS011;52486;51.098;13.770;2023-06-22T00:31:12;1.50;;;1.40;;
65751;SDS011;52486;51.098;13.770;2023-06-22T00:33:38;1.50;;;1.40;;
65751;SDS011;52486;51.098;13.770;2023-06-22T00:36:04;1.48;;;1.38;;
65751;SDS011;52486;51.098;13.770;2023-06-22T00:38:31;1.42;;;1.33;;
65751;SDS011;52486;51.098;13.770;2023-06-22T00:40:57;1.60;;;1.50;;
65751;SDS011;52486;51.098;13.770;2023-06-22T00:43:22;2.55;;;1.20;;
65751;SDS011;52486;51.098;13.770;2023-06-22T00:45:48;1.55;;;1.45;;
65751;SDS011;52486;51.098;13.770;2023-06-22T00:48:14;1.63;;;1.52;;
65751;SDS011;52486;51.098;13.770;2023-06-22T00:50:40;1.50;;;1.40;;
65751;SDS011;52486;51.098;13.770;2023-06-22T00:53:06;1.90;;;1.67;;
65751;SDS011;52486;51.098;13.770;2023-06-22T00:55:34;1.52;;;1.42;;
65751;SDS011;52486;51.098;13.770;2023-06-22T00:58:05;1.48;;;1.38;;
65751;SDS011;52486;51.098;13.770;2023-06-22T01:00:35;1.50;;;1.40;;
65751;SDS011;52486;51.098;13.770;2023-06-22T01:03:01;1.40;;;1.30;;
65751;SDS011;52486;51.098;13.770;2023-06-22T01:05:28;1.55;;;1.45;;
65751;SDS011;52486;51.098;13.770;2023-06-22T01:08:16;1.70;;;1.60;;
65751;SDS011;52486;51.098;13.770;2023-06-22T01:11:08;1.83;;;1.33;;
65751;SDS011;52486;51.098;13.770;2023-06-22T01:16:27;1.40;;;1.30;;
65751;SDS011;52486;51.098;13.770;2023-06-22T01:19:00;1.52;;;1.42;;
65751;SDS011;52486;51.098;13.770;2023-06-22T01:21:30;1.40;;;1.30;;
65751;SDS011;52486;51.098;13.770;2023-06-22T01:24:12;1.60;;;1.50;;
65751;SDS011;52486;51.098;13.770;2023-06-22T01:29:31;1.70;;;1.60;;
65751;SDS011;52486;51.098;13.770;2023-06-22T01:31:58;1.50;;;1.40;;
65751;SDS011;52486;51.098;13.770;2023-06-22T01:34:25;1.40;;;1.30;;
65751;SDS011;52486;51.098;13.770;2023-06-22T01:36:51;2.55;;;1.40;;
65751;SDS011;52486;51.098;13.770;2023-06-22T01:39:18;1.40;;;1.30;;
65751;SDS011;52486;51.098;13.770;2023-06-22T01:41:45;1.58;;;1.48;;
65751;SDS011;52486;51.098;13.770;2023-06-22T01:44:12;1.58;;;1.45;;
65751;SDS011;52486;51.098;13.770;2023-06-22T01:46:38;1.23;;;1.23;;
65751;SDS011;52486;51.098;13.770;2023-06-22T01:49:05;1.50;;;1.40;;
65751;SDS011;52486;51.098;13.770;2023-06-22T01:51:31;1.70;;;1.60;;
65751;SDS011;52486;51.098;13.770;2023-06-22T01:53:57;1.60;;;1.50;;
65751;SDS011;52486;51.098;13.770;2023-06-22T01:56:23;1.42;;;1.33;;
65751;SDS011;52486;51.098;13.770;2023-06-22T02:01:25;2.22;;;1.40;;
65751;SDS011;52486;51.098;13.770;2023-06-22T02:04:02;1.58;;;1.48;;
65751;SDS011;52486;51.098;13.770;2023-06-22T02:06:33;1.50;;;1.40;;
65751;SDS011;52486;51.098;13.770;2023-06-22T02:09:12;1.60;;;1.50;;
65751;SDS011;52486;51.098;13.770;2023-06-22T02:11:41;1.58;;;1.40;;
65751;SDS011;52486;51.098;13.770;2023-06-22T02:14:08;1.50;;;1.40;;
65751;SDS011;52486;51.098;13.770;2023-06-22T02:16:35;1.52;;;1.42;;
65751;SDS011;52486;51.098;13.770;2023-06-22T02:19:02;1.60;;;1.50;;
65751;SDS011;52486;51.098;13.770;2023-06-22T02:21:29;1.60;;;1.50;;
65751;SDS011;52486;51.098;13.770;2023-06-22T02:23:56;1.40;;;1.30;;
65751;SDS011;52486;51.098;13.770;2023-06-22T02:26:22;1.58;;;1.48;;
65751;SDS011;52486;51.098;13.770;2023-06-22T02:28:50;1.40;;;1.30;;
65751;SDS011;52486;51.098;13.770;2023-06-22T02:31:15;1.50;;;1.40;;
65751;SDS011;52486;51.098;13.770;2023-06-22T02:33:41;1.48;;;1.38;;
65751;SDS011;52486;51.098;13.770;2023-06-22T02:36:08;1.40;;;1.30;;
65751;SDS011;52486;51.098;13.770;2023-06-22T02:38:38;1.67;;;1.50;;
65751;SDS011;52486;51.098;13.770;2023-06-22T02:41:04;1.63;;;1.52;;
65751;SDS011;52486;51.098;13.770;2023-06-22T02:43:31;1.52;;;1.42;;
65751;SDS011;52486;51.098;13.770;2023-06-22T02:45:57;1.60;;;1.50;;
65751;SDS011;52486;51.098;13.770;2023-06-22T02:48:22;1.40;;;1.30;;
65751;SDS011;52486;51.098;13.770;2023-06-22T02:50:48;1.60;;;1.50;;
65751;SDS011;52486;51.098;13.770;2023-06-22T02:53:13;1.15;;;1.15;;
65751;SDS011;52486;51.098;13.770;2023-06-22T02:55:40;1.38;;;1.27;;
65751;SDS011;52486;51.098;13.770;2023-06-22T02:58:05;2.47;;;1.33;;
65751;SDS011;52486;51.098;13.770;2023-06-22T03:00:31;1.30;;;1.25;;
65751;SDS011;52486;51.098;13.770;2023-06-22T03:02:57;1.45;;;1.35;;
65751;SDS011;52486;51.098;13.770;2023-06-22T03:05:23;1.50;;;1.40;;
65751;SDS011;52486;51.098;13.770;2023-06-22T03:07:49;1.67;;;1.13;;
65751;SDS011;52486;51.098;13.770;2023-06-22T03:10:15;1.60;;;1.50;;
65751;SDS011;52486;51.098;13.770;2023-06-22T03:12:41;1.60;;;1.50;;
65751;SDS011;52486;51.098;13.770;2023-06-22T03:15:09;1.45;;;1.35;;
65751;SDS011;52486;51.098;13.770;2023-06-22T03:17:37;1.48;;;1.25;;
65751;SDS011;52486;51.098;13.770;2023-06-22T03:22:37;1.50;;;1.40;;
65751;SDS011;52486;51.098;13.770;2023-06-22T03:25:03;1.50;;;1.40;;
65751;SDS011;52486;51.098;13.770;2023-06-22T03:27:29;1.40;;;1.30;;
65751;SDS011;52486;51.098;13.770;2023-06-22T03:29:56;1.67;;;1.58;;
65751;SDS011;52486;51.098;13.770;2023-06-22T03:32:22;1.55;;;1.45;;
65751;SDS011;52486;51.098;13.770;2023-06-22T03:34:48;1.75;;;1.65;;
65751;SDS011;52486;51.098;13.770;2023-06-22T03:37:14;1.33;;;1.23;;
65751;SDS011;52486;51.098;13.770;2023-06-22T03:39:40;1.55;;;1.45;;
65751;SDS011;52486;51.098;13.770;2023-06-22T03:42:06;1.70;;;1.60;;
65751;SDS011;52486;51.098;13.770;2023-06-22T03:44:32;1.50;;;1.40;;
65751;SDS011;52486;51.098;13.770;2023-06-22T03:46:58;1.60;;;1.45;;
65751;SDS011;52486;51.098;13.770;2023-06-22T03:49:24;1.40;;;1.30;;
65751;SDS011;52486;51.098;13.770;2023-06-22T03:51:49;1.70;;;1.60;;
65751;SDS011;52486;51.098;13.770;2023-06-22T03:54:15;1.58;;;1.48;;
65751;SDS011;52486;51.098;13.770;2023-06-22T03:56:41;1.40;;;1.30;;
65751;SDS011;52486;51.098;13.770;2023-06-22T03:59:07;1.55;;;1.45;;
65751;SDS011;52486;51.098;13.770;2023-06-22T04:01:33;1.77;;;1.67;;
65751;SDS011;52486;51.098;13.770;2023-06-22T04:03:59;1.67;;;1.58;;
65751;SDS011;52486;51.098;13.770;2023-06-22T04:06:25;2.03;;;1.45;;
65751;SDS011;52486;51.098;13.770;2023-06-22T04:08:51;1.55;;;1.45;;
65751;SDS011;52486;51.098;13.770;2023-06-22T04:11:17;1.83;;;1.60;;
65751;SDS011;52486;51.098;13.770;2023-06-22T04:13:45;1.70;;;1.60;;
65751;SDS011;52486;51.098;13.770;2023-06-22T04:16:13;1.70;;;1.60;;
65751;SDS011;52486;51.098;13.770;2023-06-22T04:18:39;1.60;;;1.50;;
65751;SDS011;52486;51.098;13.770;2023-06-22T04:21:05;1.65;;;1.52;;
65751;SDS011;52486;51.098;13.770;2023-06-22T04:23:30;1.80;;;1.70;;
65751;SDS011;52486;51.098;13.770;2023-06-22T04:25:56;1.88;;;1.77;;
65751;SDS011;52486;51.098;13.770;2023-06-22T04:28:22;1.90;;;1.80;;
65751;SDS011;52486;51.098;13.770;2023-06-22T04:30:48;1.55;;;1.45;;
65751;SDS011;52486;51.098;13.770;2023-06-22T04:33:16;1.98;;;1.85;;
65751;SDS011;52486;51.098;13.770;2023-06-22T04:35:44;1.67;;;1.58;;
65751;SDS011;52486;51.098;13.770;2023-06-22T04:38:11;1.77;;;1.67;;
65751;SDS011;52486;51.098;13.770;2023-06-22T04:40:41;1.77;;;1.67;;
65751;SDS011;52486;51.098;13.770;2023-06-22T04:43:06;1.75;;;1.65;;
65751;SDS011;52486;51.098;13.770;2023-06-22T04:45:35;2.05;;;1.85;;
65751;SDS011;52486;51.098;13.770;2023-06-22T04:48:03;1.70;;;1.60;;
65751;SDS011;52486;51.098;13.770;2023-06-22T04:50:29;1.95;;;1.70;;
65751;SDS011;52486;51.098;13.770;2023-06-22T04:52:55;1.77;;;1.67;;
65751;SDS011;52486;51.098;13.770;2023-06-22T04:55:21;1.90;;;1.80;;
65751;SDS011;52486;51.098;13.770;2023-06-22T04:57:47;1.80;;;1.70;;
65751;SDS011;52486;51.098;13.770;2023-06-22T05:00:14;1.98;;;1.88;;
65751;SDS011;52486;51.098;13.770;2023-06-22T05:02:43;1.85;;;1.73;;
65751;SDS011;52486;51.098;13.770;2023-06-22T05:05:10;1.73;;;1.63;;
65751;SDS011;52486;51.098;13.770;2023-06-22T05:07:42;2.05;;;1.90;;
65751;SDS011;52486;51.098;13.770;2023-06-22T05:12:36;2.10;;;1.92;;
65751;SDS011;52486;51.098;13.770;2023-06-22T05:15:02;2.38;;;1.80;;
65751;SDS011;52486;51.098;13.770;2023-06-22T05:17:27;2.03;;;1.85;;
65751;SDS011;52486;51.098;13.770;2023-06-22T05:19:53;1.98;;;1.77;;
65751;SDS011;52486;51.098;13.770;2023-06-22T05:22:20;2.20;;;2.00;;
65751;SDS011;52486;51.098;13.770;2023-06-22T05:24:46;1.95;;;1.75;;
65751;SDS011;52486;51.098;13.770;2023-06-22T05:27:12;1.90;;;1.65;;
65751;SDS011;52486;51.098;13.770;2023-06-22T05:29:38;1.77;;;1.67;;
65751;SDS011;52486;51.098;13.770;2023-06-22T05:32:04;2.17;;;1.98;;
65751;SDS011;52486;51.098;13.770;2023-06-22T05:34:31;2.00;;;1.90;;
65751;SDS011;52486;51.098;13.770;2023-06-22T05:36:57;1.90;;;1.80;;
65751;SDS011;52486;51.098;13.770;2023-06-22T05:39:25;2.08;;;1.98;;
65751;SDS011;52486;51.098;13.770;2023-06-22T05:41:51;2.10;;;2.00;;
65751;SDS011;52486;51.098;13.770;2023-06-22T05:44:18;1.98;;;1.88;;
65751;SDS011;52486;51.098;13.770;2023-06-22T05:46:44;2.10;;;1.90;;
65751;SDS011;52486;51.098;13.770;2023-06-22T05:49:11;1.92;;;1.80;;
65751;SDS011;52486;51.098;13.770;2023-06-22T05:51:38;2.95;;;2.08;;
65751;SDS011;52486;51.098;13.770;2023-06-22T05:54:04;2.65;;;1.88;;
65751;SDS011;52486;51.098;13.770;2023-06-22T05:56:29;1.88;;;1.77;;
65751;SDS011;52486;51.098;13.770;2023-06-22T05:58:56;2.33;;;2.13;;
65751;SDS011;52486;51.098;13.770;2023-06-22T06:01:22;2.10;;;2.00;;
65751;SDS011;52486;51.098;13.770;2023-06-22T06:03:48;1.95;;;1.85;;
65751;SDS011;52486;51.098;13.770;2023-06-22T06:06:15;2.47;;;2.15;;
65751;SDS011;52486;51.098;13.770;2023-06-22T06:08:41;2.00;;;1.88;;
65751;SDS011;52486;51.098;13.770;2023-06-22T06:11:07;2.20;;;2.05;;
65751;SDS011;52486;51.098;13.770;2023-06-22T06:13:33;2.20;;;2.00;;
65751;SDS011;52486;51.098;13.770;2023-06-22T06:15:59;2.78;;;2.00;;
65751;SDS011;52486;51.098;13.770;2023-06-22T06:18:25;3.42;;;2.67;;
65751;SDS011;52486;51.098;13.770;2023-06-22T06:20:51;9.98;;;3.03;;
65751;SDS011;52486;51.098;13.770;2023-06-22T06:23:18;8.48;;;3.97;;
65751;SDS011;52486;51.098;13.770;2023-06-22T06:25:43;7.65;;;3.83;;
65751;SDS011;52486;51.098;13.770;2023-06-22T06:28:09;7.82;;;3.95;;
65751;SDS011;52486;51.098;13.770;2023-06-22T06:30:35;7.00;;;4.20;;
65751;SDS011;52486;51.098;13.770;2023-06-22T06:33:02;11.00;;;4.40;;
65751;SDS011;52486;51.098;13.770;2023-06-22T06:35:33;6.30;;;4.65;;
65751;SDS011;52486;51.098;13.770;2023-06-22T06:37:59;8.93;;;4.38;;
65751;SDS011;52486;51.098;13.770;2023-06-22T06:40:25;9.57;;;5.25;;
65751;SDS011;52486;51.098;13.770;2023-06-22T06:42:50;8.15;;;4.13;;
65751;SDS011;52486;51.098;13.770;2023-06-22T06:45:18;6.68;;;4.13;;
65751;SDS011;52486;51.098;13.770;2023-06-22T06:47:45;10.02;;;4.30;;
65751;SDS011;52486;51.098;13.770;2023-06-22T06:50:11;9.05;;;4.50;;
65751;SDS011;52486;51.098;13.770;2023-06-22T06:52:37;5.85;;;4.80;;
65751;SDS011;52486;51.098;13.770;2023-06-22T06:55:03;8.68;;;4.88;;
65751;SDS011;52486;51.098;13.770;2023-06-22T06:57:32;5.67;;;4.60;;
65751;SDS011;52486;51.098;13.770;2023-06-22T06:59:59;5.13;;;4.63;;
65751;SDS011;52486;51.098;13.770;2023-06-22T07:02:25;4.63;;;4.18;;
65751;SDS011;52486;51.098;13.770;2023-06-22T07:04:53;7.38;;;4.72;;
65751;SDS011;52486;51.098;13.770;2023-06-22T07:07:22;5.30;;;4.53;;
65751;SDS011;52486;51.098;13.770;2023-06-22T07:09:48;6.35;;;4.72;;
65751;SDS011;52486;51.098;13.770;2023-06-22T07:12:14;4.75;;;4.10;;
65751;SDS011;52486;51.098;13.770;2023-06-22T07:14:40;6.55;;;4.78;;
65751;SDS011;52486;51.098;13.770;2023-06-22T07:17:06;7.20;;;4.72;;
65751;SDS011;52486;51.098;13.770;2023-06-22T07:19:32;7.22;;;5.07;;
65751;SDS011;52486;51.098;13.770;2023-06-22T07:21:58;5.53;;;5.03;;
65751;SDS011;52486;51.098;13.770;2023-06-22T07:24:24;7.03;;;5.05;;
65751;SDS011;52486;51.098;13.770;2023-06-22T07:26:50;7.32;;;5.40;;
65751;SDS011;52486;51.098;13.770;2023-06-22T07:29:17;6.32;;;4.97;;
65751;SDS011;52486;51.098;13.770;2023-06-22T07:31:43;5.72;;;5.13;;
65751;SDS011;52486;51.098;13.770;2023-06-22T07:34:09;6.07;;;5.57;;
65751;SDS011;52486;51.098;13.770;2023-06-22T07:36:35;6.30;;;5.60;;
65751;SDS011;52486;51.098;13.770;2023-06-22T07:39:04;6.10;;;5.30;;
65751;SDS011;52486;51.098;13.770;2023-06-22T07:41:30;6.82;;;5.50;;
65751;SDS011;52486;51.098;13.770;2023-06-22T07:43:56;10.55;;;5.55;;
65751;SDS011;52486;51.098;13.770;2023-06-22T07:46:22;8.93;;;5.57;;
65751;SDS011;52486;51.098;13.770;2023-06-22T07:48:48;8.98;;;5.50;;
65751;SDS011;52486;51.098;13.770;2023-06-22T07:51:14;9.57;;;5.32;;
65751;SDS011;52486;51.098;13.770;2023-06-22T07:53:41;8.55;;;6.10;;
65751;SDS011;52486;51.098;13.770;2023-06-22T07:56:10;19.42;;;6.00;;
65751;SDS011;52486;51.098;13.770;2023-06-22T07:58:36;7.28;;;5.95;;
65751;SDS011;52486;51.098;13.770;2023-06-22T08:01:02;9.60;;;6.43;;
65751;SDS011;52486;51.098;13.770;2023-06-22T08:03:28;8.60;;;5.88;;
65751;SDS011;52486;51.098;13.770;2023-06-22T08:05:54;6.47;;;5.88;;
65751;SDS011;52486;51.098;13.770;2023-06-22T08:08:21;6.68;;;5.43;;
65751;SDS011;52486;51.098;13.770;2023-06-22T08:10:46;8.73;;;5.82;;
65751;SDS011;52486;51.098;13.770;2023-06-22T08:13:13;10.73;;;5.82;;
65751;SDS011;52486;51.098;13.770;2023-06-22T08:15:39;11.18;;;5.80;;
65751;SDS011;52486;51.098;13.770;2023-06-22T08:18:05;10.27;;;6.15;;
65751;SDS011;52486;51.098;13.770;2023-06-22T08:20:31;12.90;;;5.63;;
65751;SDS011;52486;51.098;13.770;2023-06-22T08:22:57;7.90;;;5.57;;
65751;SDS011;52486;51.098;13.770;2023-06-22T08:25:30;9.02;;;5.80;;
65751;SDS011;52486;51.098;13.770;2023-06-22T08:27:56;13.52;;;6.28;;
65751;SDS011;52486;51.098;13.770;2023-06-22T08:30:21;8.02;;;5.93;;
65751;SDS011;52486;51.098;13.770;2023-06-22T08:32:47;8.07;;;5.55;;
65751;SDS011;52486;51.098;13.770;2023-06-22T08:35:14;10.23;;;5.78;;
65751;SDS011;52486;51.098;13.770;2023-06-22T08:37:39;9.90;;;5.93;;
65751;SDS011;52486;51.098;13.770;2023-06-22T08:40:07;11.20;;;5.53;;
65751;SDS011;52486;51.098;13.770;2023-06-22T08:42:37;9.55;;;5.65;;
65751;SDS011;52486;51.098;13.770;2023-06-22T08:45:05;7.78;;;6.00;;
65751;SDS011;52486;51.098;13.770;2023-06-22T08:47:31;11.18;;;5.60;;
65751;SDS011;52486;51.098;13.770;2023-06-22T08:49:57;10.27;;;5.78;;
65751;SDS011;52486;51.098;13.770;2023-06-22T08:52:23;14.20;;;6.28;;
65751;SDS011;52486;51.098;13.770;2023-06-22T08:54:49;16.52;;;5.82;;
65751;SDS011;52486;51.098;13.770;2023-06-22T08:57:16;13.00;;;6.30;;
65751;SDS011;52486;51.098;13.770;2023-06-22T08:59:42;9.48;;;5.60;;
65751;SDS011;52486;51.098;13.770;2023-06-22T09:02:08;10.15;;;6.53;;
65751;SDS011;52486;51.098;13.770;2023-06-22T09:04:34;11.50;;;6.18;;
65751;SDS011;52486;51.098;13.770;2023-06-22T09:07:03;12.13;;;6.68;;
65751;SDS011;52486;51.098;13.770;2023-06-22T09:09:29;9.63;;;6.38;;
65751;SDS011;52486;51.098;13.770;2023-06-22T09:11:55;8.57;;;5.78;;
65751;SDS011;52486;51.098;13.770;2023-06-22T09:14:21;12.02;;;6.50;;
65751;SDS011;52486;51.098;13.770;2023-06-22T09:16:48;7.30;;;6.05;;
65751;SDS011;52486;51.098;13.770;2023-06-22T09:19:13;7.90;;;5.50;;
65751;SDS011;52486;51.098;13.770;2023-06-22T09:21:41;14.70;;;6.10;;
65751;SDS011;52486;51.098;13.770;2023-06-22T09:24:07;8.52;;;5.45;;
65751;SDS011;52486;51.098;13.770;2023-06-22T09:26:33;9.48;;;5.70;;
65751;SDS011;52486;51.098;13.770;2023-06-22T09:28:59;9.70;;;5.70;;
65751;SDS011;52486;51.098;13.770;2023-06-22T09:31:25;11.30;;;5.78;;
65751;SDS011;52486;51.098;13.770;2023-06-22T09:33:52;9.80;;;5.90;;
65751;SDS011;52486;51.098;13.770;2023-06-22T09:36:20;8.93;;;5.63;;
65751;SDS011;52486;51.098;13.770;2023-06-22T09:38:47;6.82;;;5.38;;
65751;SDS011;52486;51.098;13.770;2023-06-22T09:41:14;7.90;;;5.80;;
65751;SDS011;52486;51.098;13.770;2023-06-22T09:43:39;6.15;;;5.30;;
65751;SDS011;52486;51.098;13.770;2023-06-22T09:46:05;6.82;;;5.75;;
65751;SDS011;52486;51.098;13.770;2023-06-22T09:48:33;6.20;;;5.03;;
65751;SDS011;52486;51.098;13.770;2023-06-22T09:50:58;9.73;;;5.47;;
65751;SDS011;52486;51.098;13.770;2023-06-22T09:53:24;15.48;;;5.43;;
65751;SDS011;52486;51.098;13.770;2023-06-22T09:55:50;8.15;;;5.35;;
65751;SDS011;52486;51.098;13.770;2023-06-22T09:58:16;12.50;;;5.50;;
65751;SDS011;52486;51.098;13.770;2023-06-22T10:00:42;6.82;;;5.07;;
65751;SDS011;52486;51.098;13.770;2023-06-22T10:03:07;5.80;;;5.20;;
65751;SDS011;52486;51.098;13.770;2023-06-22T10:05:35;7.05;;;5.55;;
65751;SDS011;52486;51.098;13.770;2023-06-22T10:08:00;8.05;;;5.32;;
65751;SDS011;52486;51.098;13.770;2023-06-22T10:10:27;9.10;;;5.32;;
65751;SDS011;52486;51.098;13.770;2023-06-22T10:12:57;9.85;;;5.43;;
65751;SDS011;52486;51.098;13.770;2023-06-22T10:15:28;10.10;;;6.03;;
65751;SDS011;52486;51.098;13.770;2023-06-22T10:17:54;7.57;;;5.40;;
65751;SDS011;52486;51.098;13.770;2023-06-22T10:20:20;8.27;;;5.68;;
65751;SDS011;52486;51.098;13.770;2023-06-22T10:22:47;7.25;;;5.65;;
65751;SDS011;52486;51.098;13.770;2023-06-22T10:25:13;10.32;;;5.45;;
65751;SDS011;52486;51.098;13.770;2023-06-22T10:27:39;12.13;;;5.80;;
65751;SDS011;52486;51.098;13.770;2023-06-22T10:30:05;6.40;;;5.70;;
65751;SDS011;52486;51.098;13.770;2023-06-22T10:35:01;9.60;;;5.40;;
65751;SDS011;52486;51.098;13.770;2023-06-22T10:37:27;9.45;;;5.47;;
65751;SDS011;52486;51.098;13.770;2023-06-22T10:39:53;9.43;;;5.28;;
65751;SDS011;52486;51.098;13.770;2023-06-22T10:42:19;7.32;;;5.30;;
65751;SDS011;52486;51.098;13.770;2023-06-22T10:44:45;11.60;;;5.65;;
65751;SDS011;52486;51.098;13.770;2023-06-22T10:47:12;7.03;;;5.72;;
65751;SDS011;52486;51.098;13.770;2023-06-22T10:49:38;9.60;;;5.63;;
65751;SDS011;52486;51.098;13.770;2023-06-22T10:52:05;9.80;;;5.70;;
65751;SDS011;52486;51.098;13.770;2023-06-22T10:54:32;10.57;;;6.22;;
65751;SDS011;52486;51.098;13.770;2023-06-22T10:56:59;7.88;;;5.70;;
65751;SDS011;52486;51.098;13.770;2023-06-22T10:59:25;11.30;;;5.93;;
65751;SDS011;52486;51.098;13.770;2023-06-22T11:01:51;9.50;;;5.70;;
65751;SDS011;52486;51.098;13.770;2023-06-22T11:04:18;14.23;;;6.05;;
65751;SDS011;52486;51.098;13.770;2023-06-22T11:06:44;8.45;;;6.07;;
65751;SDS011;52486;51.098;13.770;2023-06-22T11:09:10;7.38;;;5.60;;
65751;SDS011;52486;51.098;13.770;2023-06-22T11:11:36;9.65;;;5.60;;
65751;SDS011;52486;51.098;13.770;2023-06-22T11:14:03;7.32;;;5.28;;
65751;SDS011;52486;51.098;13.770;2023-06-22T11:16:29;8.70;;;5.78;;
65751;SDS011;52486;51.098;13.770;2023-06-22T11:18:55;11.95;;;5.70;;
65751;SDS011;52486;51.098;13.770;2023-06-22T11:21:21;8.18;;;5.40;;
65751;SDS011;52486;51.098;13.770;2023-06-22T11:23:47;9.20;;;5.30;;
65751;SDS011;52486;51.098;13.770;2023-06-22T11:26:13;6.18;;;4.80;;
65751;SDS011;52486;51.098;13.770;2023-06-22T11:28:39;8.57;;;5.35;;
65751;SDS011;52486;51.098;13.770;2023-06-22T11:31:07;6.25;;;4.90;;
65751;SDS011;52486;51.098;13.770;2023-06-22T11:33:33;9.50;;;4.88;;
65751;SDS011;52486;51.098;13.770;2023-06-22T11:35:59;7.03;;;5.20;;
65751;SDS011;52486;51.098;13.770;2023-06-22T11:38:25;8.02;;;5.07;;
65751;SDS011;52486;51.098;13.770;2023-06-22T11:40:52;6.13;;;4.85;;
65751;SDS011;52486;51.098;13.770;2023-06-22T11:43:18;5.70;;;4.85;;
65751;SDS011;52486;51.098;13.770;2023-06-22T11:45:44;7.25;;;4.90;;
65751;SDS011;52486;51.098;13.770;2023-06-22T11:48:10;11.88;;;6.30;;
65751;SDS011;52486;51.098;13.770;2023-06-22T11:50:36;11.48;;;5.75;;
65751;SDS011;52486;51.098;13.770;2023-06-22T11:53:02;12.02;;;6.07;;
65751;SDS011;52486;51.098;13.770;2023-06-22T11:55:29;8.43;;;5.75;;
65751;SDS011;52486;51.098;13.770;2023-06-22T11:57:55;10.73;;;5.65;;
65751;SDS011;52486;51.098;13.770;2023-06-22T12:00:25;11.52;;;6.15;;
65751;SDS011;52486;51.098;13.770;2023-06-22T12:02:51;9.43;;;6.03;;
65751;SDS011;52486;51.098;13.770;2023-06-22T12:05:19;11.98;;;5.90;;
65751;SDS011;52486;51.098;13.770;2023-06-22T12:07:46;8.35;;;5.75;;
65751;SDS011;52486;51.098;13.770;2023-06-22T12:10:13;9.45;;;5.43;;
65751;SDS011;52486;51.098;13.770;2023-06-22T12:12:39;7.90;;;6.00;;
65751;SDS011;52486;51.098;13.770;2023-06-22T12:15:05;14.60;;;5.72;;
65751;SDS011;52486;51.098;13.770;2023-06-22T12:17:32;9.10;;;5.38;;
65751;SDS011;52486;51.098;13.770;2023-06-22T12:19:58;5.78;;;5.13;;
65751;SDS011;52486;51.098;13.770;2023-06-22T12:22:24;8.13;;;5.60;;
65751;SDS011;52486;51.098;13.770;2023-06-22T12:24:50;7.72;;;5.20;;
65751;SDS011;52486;51.098;13.770;2023-06-22T12:27:16;8.73;;;5.30;;
65751;SDS011;52486;51.098;13.770;2023-06-22T12:29:46;11.15;;;5.30;;
65751;SDS011;52486;51.098;13.770;2023-06-22T12:32:12;8.63;;;4.82;;
65751;SDS011;52486;51.098;13.770;2023-06-22T12:34:39;8.75;;;5.35;;
65751;SDS011;52486;51.098;13.770;2023-06-22T12:37:05;9.15;;;4.95;;
65751;SDS011;52486;51.098;13.770;2023-06-22T12:39:31;7.45;;;4.93;;
65751;SDS011;52486;51.098;13.770;2023-06-22T12:41:58;6.05;;;5.10;;
65751;SDS011;52486;51.098;13.770;2023-06-22T12:44:24;8.07;;;5.07;;
65751;SDS011;52486;51.098;13.770;2023-06-22T12:46:50;6.80;;;5.20;;
65751;SDS011;52486;51.098;13.770;2023-06-22T12:49:16;7.65;;;4.65;;
65751;SDS011;52486;51.098;13.770;2023-06-22T12:51:42;6.60;;;4.50;;
65751;SDS011;52486;51.098;13.770;2023-06-22T12:54:09;11.57;;;5.15;;
65751;SDS011;52486;51.098;13.770;2023-06-22T12:56:35;5.90;;;4.60;;
65751;SDS011;52486;51.098;13.770;2023-06-22T12:59:01;5.13;;;4.55;;
65751;SDS011;52486;51.098;13.770;2023-06-22T13:01:27;7.47;;;4.78;;
65751;SDS011;52486;51.098;13.770;2023-06-22T13:03:55;7.50;;;4.57;;
65751;SDS011;52486;51.098;13.770;2023-06-22T13:06:21;8.95;;;5.07;;
65751;SDS011;52486;51.098;13.770;2023-06-22T13:08:47;8.40;;;4.70;;
65751;SDS011;52486;51.098;13.770;2023-06-22T13:11:13;5.97;;;4.50;;
65751;SDS011;52486;51.098;13.770;2023-06-22T13:13:39;7.38;;;4.65;;
65751;SDS011;52486;51.098;13.770;2023-06-22T13:16:06;8.10;;;4.75;;
65751;SDS011;52486;51.098;13.770;2023-06-22T13:18:40;5.35;;;4.25;;
65751;SDS011;52486;51.098;13.770;2023-06-22T13:21:06;14.10;;;4.50;;
65751;SDS011;52486;51.098;13.770;2023-06-22T13:23:32;8.27;;;4.40;;
65751;SDS011;52486;51.098;13.770;2023-06-22T13:25:59;5.80;;;4.15;;
65751;SDS011;52486;51.098;13.770;2023-06-22T13:28:25;5.30;;;4.05;;
65751;SDS011;52486;51.098;13.770;2023-06-22T13:30:51;4.53;;;4.07;;
65751;SDS011;52486;51.098;13.770;2023-06-22T13:33:17;4.40;;;4.00;;
65751;SDS011;52486;51.098;13.770;2023-06-22T13:35:43;6.07;;;4.13;;
65751;SDS011;52486;51.098;13.770;2023-06-22T13:38:09;5.57;;;4.38;;
65751;SDS011;52486;51.098;13.770;2023-06-22T13:40:35;6.47;;;4.22;;
65751;SDS011;52486;51.098;13.770;2023-06-22T13:43:03;6.22;;;3.88;;
65751;SDS011;52486;51.098;13.770;2023-06-22T13:45:29;7.65;;;4.40;;
65751;SDS011;52486;51.098;13.770;2023-06-22T13:47:55;6.07;;;4.20;;
65751;SDS011;52486;51.098;13.770;2023-06-22T13:50:21;8.68;;;4.32;;
65751;SDS011;52486;51.098;13.770;2023-06-22T13:52:46;5.97;;;3.60;;
65751;SDS011;52486;51.098;13.770;2023-06-22T13:55:13;7.57;;;4.35;;
65751;SDS011;52486;51.098;13.770;2023-06-22T13:57:39;7.25;;;3.75;;
65751;SDS011;52486;51.098;13.770;2023-06-22T14:00:05;5.55;;;3.50;;
65751;SDS011;52486;51.098;13.770;2023-06-22T14:02:32;4.32;;;3.90;;
65751;SDS011;52486;51.098;13.770;2023-06-22T14:04:58;6.97;;;3.40;;
65751;SDS011;52486;51.098;13.770;2023-06-22T14:07:24;6.63;;;4.20;;
65751;SDS011;52486;51.098;13.770;2023-06-22T14:09:50;5.22;;;4.45;;
65751;SDS011;52486;51.098;13.770;2023-06-22T14:12:16;6.18;;;5.10;;
65751;SDS011;52486;51.098;13.770;2023-06-22T14:14:45;5.32;;;4.82;;
65751;SDS011;52486;51.098;13.770;2023-06-22T14:17:11;7.82;;;5.68;;
65751;SDS011;52486;51.098;13.770;2023-06-22T14:19:37;6.57;;;5.35;;
65751;SDS011;52486;51.098;13.770;2023-06-22T14:22:03;9.52;;;5.65;;
65751;SDS011;52486;51.098;13.770;2023-06-22T14:24:29;6.88;;;5.32;;
65751;SDS011;52486;51.098;13.770;2023-06-22T14:26:55;6.72;;;5.65;;
65751;SDS011;52486;51.098;13.770;2023-06-22T14:29:22;8.52;;;6.45;;
65751;SDS011;52486;51.098;13.770;2023-06-22T14:31:48;10.02;;;6.30;;
65751;SDS011;52486;51.098;13.770;2023-06-22T14:34:14;12.18;;;6.45;;
65751;SDS011;52486;51.098;13.770;2023-06-22T14:36:40;9.77;;;6.00;;
65751;SDS011;52486;51.098;13.770;2023-06-22T14:39:06;5.95;;;4.80;;
65751;SDS011;52486;51.098;13.770;2023-06-22T14:41:32;9.57;;;5.00;;
65751;SDS011;52486;51.098;13.770;2023-06-22T14:43:58;7.03;;;5.00;;
65751;SDS011;52486;51.098;13.770;2023-06-22T14:46:24;7.80;;;5.32;;